createdAt,value
2019-03-29T00:01:26.489Z,16.60
2019-03-29T00:03:55.621Z,16.50
2019-03-29T00:06:23.725Z,16.50
2019-03-29T00:08:51.954Z,16.50
2019-03-29T00:11:20.179Z,16.50
2019-03-29T00:13:48.293Z,16.60
2019-03-29T00:16:16.357Z,16.60
2019-03-29T00:18:44.382Z,16.50
2019-03-29T00:21:13.013Z,16.50
2019-03-29T00:23:42.303Z,16.50
2019-03-29T00:26:10.431Z,16.50
2019-03-29T00:28:38.481Z,16.50
2019-03-29T00:31:06.535Z,16.50
2019-03-29T00:33:34.771Z,16.60
2019-03-29T00:36:02.876Z,16.60
2019-03-29T00:38:31.064Z,16.60
2019-03-29T00:40:59.259Z,16.60
2019-03-29T00:43:28.557Z,16.50
2019-03-29T00:45:56.621Z,16.50
2019-03-29T00:48:24.726Z,16.40
2019-03-29T00:50:52.839Z,16.30
2019-03-29T00:53:20.996Z,15.90
2019-03-29T00:55:49.133Z,16.00
2019-03-29T00:58:18.712Z,16.00
2019-03-29T01:00:46.977Z,16.00
2019-03-29T01:03:15.097Z,16.10
2019-03-29T01:05:43.169Z,16.00
2019-03-29T01:08:11.291Z,16.00
2019-03-29T01:10:40.509Z,15.70
2019-03-29T01:13:08.528Z,15.50
2019-03-29T01:15:36.791Z,15.50
2019-03-29T01:18:05.083Z,15.60
2019-03-29T01:20:33.246Z,15.80
2019-03-29T01:23:01.410Z,15.70
2019-03-29T01:25:29.702Z,15.60
2019-03-29T01:27:57.987Z,15.50
2019-03-29T01:30:26.077Z,15.60
2019-03-29T01:32:54.097Z,15.70
2019-03-29T01:35:22.149Z,15.80
2019-03-29T01:37:50.272Z,15.90
2019-03-29T01:40:20.127Z,15.80
2019-03-29T01:42:48.138Z,15.80
2019-03-29T01:45:16.167Z,15.80
2019-03-29T01:47:44.220Z,15.80
2019-03-29T01:50:12.379Z,15.90
2019-03-29T01:52:40.525Z,15.90
2019-03-29T01:55:08.927Z,15.90
2019-03-29T01:57:37.139Z,15.90
2019-03-29T02:00:06.632Z,15.90
2019-03-29T02:02:34.992Z,15.90
2019-03-29T02:05:03.783Z,15.80
2019-03-29T02:07:31.853Z,15.80
2019-03-29T02:10:00.000Z,15.70
2019-03-29T02:12:28.126Z,15.70
2019-03-29T02:14:56.299Z,15.70
2019-03-29T02:17:24.341Z,15.60
2019-03-29T02:19:54.192Z,15.50
2019-03-29T02:22:22.367Z,15.60
2019-03-29T02:24:50.532Z,15.60
2019-03-29T02:27:18.722Z,15.50
2019-03-29T02:29:46.809Z,15.10
2019-03-29T02:32:14.973Z,15.00
2019-03-29T02:34:43.906Z,14.90
2019-03-29T02:37:12.393Z,14.80
2019-03-29T02:39:40.482Z,14.60
2019-03-29T02:42:08.534Z,14.10
2019-03-29T02:44:36.663Z,14.00
2019-03-29T02:47:04.865Z,14.20
2019-03-29T02:49:33.018Z,14.20
2019-03-29T02:52:01.088Z,14.10
2019-03-29T02:54:29.212Z,14.00
2019-03-29T02:56:57.283Z,14.30
2019-03-29T02:59:25.391Z,14.20
2019-03-29T03:01:53.436Z,14.20
2019-03-29T03:04:22.727Z,14.00
2019-03-29T03:06:51.851Z,13.80
2019-03-29T03:09:19.938Z,14.00
2019-03-29T03:11:48.089Z,14.20
2019-03-29T03:14:16.222Z,14.00
2019-03-29T03:16:44.377Z,14.00
2019-03-29T03:19:12.571Z,14.30
2019-03-29T03:21:40.701Z,14.50
2019-03-29T03:24:08.753Z,14.60
2019-03-29T03:26:36.904Z,14.70
2019-03-29T03:29:05.112Z,14.70
2019-03-29T03:31:33.469Z,14.90
2019-03-29T03:34:01.768Z,14.90
2019-03-29T03:36:29.982Z,14.90
2019-03-29T03:38:58.245Z,15.00
2019-03-29T03:41:26.321Z,14.90
2019-03-29T03:44:13.657Z,14.90
2019-03-29T03:46:41.721Z,15.10
2019-03-29T03:49:09.838Z,15.10
2019-03-29T03:51:38.164Z,15.00
2019-03-29T03:54:06.524Z,15.00
2019-03-29T03:56:34.742Z,15.00
2019-03-29T03:59:03.197Z,14.90
2019-03-29T04:01:31.359Z,15.00
2019-03-29T04:03:59.516Z,15.10
2019-03-29T04:06:27.776Z,15.00
2019-03-29T04:08:55.954Z,15.10
2019-03-29T04:11:24.203Z,14.00
2019-03-29T04:13:52.322Z,13.70
2019-03-29T04:16:21.561Z,13.50
2019-03-29T04:18:49.711Z,13.50
2019-03-29T04:21:17.995Z,13.60
2019-03-29T04:23:46.126Z,13.40
2019-03-29T04:26:14.374Z,13.50
2019-03-29T04:28:43.144Z,13.60
2019-03-29T04:31:11.347Z,13.60
2019-03-29T04:33:39.639Z,13.80
2019-03-29T04:36:08.737Z,13.90
2019-03-29T04:38:36.994Z,13.80
2019-03-29T04:41:05.454Z,14.00
2019-03-29T04:43:33.602Z,14.20
2019-03-29T04:46:01.704Z,14.30
2019-03-29T04:48:29.878Z,14.30
2019-03-29T04:50:57.987Z,14.50
2019-03-29T04:53:25.975Z,14.40
2019-03-29T04:55:54.104Z,14.40
2019-03-29T04:58:22.183Z,14.40
2019-03-29T05:00:50.237Z,14.50
2019-03-29T05:03:18.464Z,14.30
2019-03-29T05:05:46.426Z,14.10
2019-03-29T05:08:14.359Z,13.70
2019-03-29T05:10:43.596Z,13.90
2019-03-29T05:13:11.623Z,14.00
2019-03-29T05:15:39.747Z,13.80
2019-03-29T05:18:07.954Z,13.70
2019-03-29T05:20:36.105Z,13.80
2019-03-29T05:23:04.219Z,14.00
2019-03-29T05:25:32.237Z,14.10
2019-03-29T05:28:00.369Z,14.20
2019-03-29T05:30:28.503Z,14.30
2019-03-29T05:32:56.587Z,14.30
2019-03-29T05:35:24.737Z,14.40
2019-03-29T05:37:54.683Z,14.50
2019-03-29T05:40:34.667Z,14.40
2019-03-29T05:42:54.480Z,14.60
2019-03-29T05:45:22.787Z,14.60
2019-03-29T05:47:50.832Z,14.70
2019-03-29T05:50:18.895Z,14.70
2019-03-29T05:52:46.977Z,14.80
2019-03-29T05:55:15.121Z,14.80
2019-03-29T05:57:43.216Z,14.60
2019-03-29T06:00:13.469Z,14.80
2019-03-29T06:02:41.574Z,14.60
2019-03-29T06:05:09.579Z,14.60
2019-03-29T06:07:37.696Z,14.70
2019-03-29T06:10:05.890Z,14.60
2019-03-29T06:12:34.014Z,14.50
2019-03-29T06:15:01.987Z,14.40
2019-03-29T06:17:30.135Z,14.50
2019-03-29T06:19:58.272Z,14.10
2019-03-29T06:22:26.457Z,13.80
2019-03-29T06:24:54.615Z,13.80
2019-03-29T06:27:22.716Z,14.00
2019-03-29T06:29:50.846Z,14.10
2019-03-29T06:32:18.816Z,14.00
2019-03-29T06:34:46.958Z,14.10
2019-03-29T06:37:17.587Z,14.10
2019-03-29T06:39:47.018Z,14.20
2019-03-29T06:42:14.997Z,14.00
2019-03-29T06:44:44.520Z,14.00
2019-03-29T06:47:12.626Z,14.30
2019-03-29T06:49:40.670Z,14.40
2019-03-29T06:52:08.670Z,14.50
2019-03-29T06:54:36.718Z,14.50
2019-03-29T06:57:04.851Z,14.70
2019-03-29T06:59:32.989Z,14.30
2019-03-29T07:02:01.026Z,14.30
2019-03-29T07:04:29.026Z,14.60
2019-03-29T07:06:57.076Z,14.70
2019-03-29T07:09:44.325Z,14.80
2019-03-29T07:12:12.381Z,14.70
2019-03-29T07:14:40.489Z,14.80
2019-03-29T07:17:10.348Z,15.00
2019-03-29T07:19:38.438Z,15.30
2019-03-29T07:22:06.436Z,15.40
2019-03-29T07:24:34.565Z,15.40
2019-03-29T07:27:02.693Z,15.60
2019-03-29T07:29:30.925Z,15.60
2019-03-29T07:31:58.975Z,15.60
2019-03-29T07:34:27.219Z,15.50
2019-03-29T07:36:55.221Z,15.40
2019-03-29T07:39:23.423Z,15.30
2019-03-29T07:41:51.522Z,15.40
2019-03-29T07:44:19.637Z,15.20
2019-03-29T07:46:47.933Z,14.60
2019-03-29T07:49:16.075Z,14.80
2019-03-29T07:51:44.317Z,15.10
2019-03-29T07:54:12.361Z,15.20
2019-03-29T07:56:40.469Z,15.10
2019-03-29T07:59:08.513Z,14.90
2019-03-29T08:01:36.619Z,14.80
2019-03-29T08:04:04.617Z,14.70
2019-03-29T08:06:32.769Z,14.80
2019-03-29T08:09:01.079Z,14.60
2019-03-29T08:11:40.107Z,14.80
2019-03-29T08:14:01.231Z,14.30
2019-03-29T08:16:31.159Z,14.40
2019-03-29T08:18:59.448Z,14.40
2019-03-29T08:21:27.649Z,14.70
2019-03-29T08:23:55.895Z,14.40
2019-03-29T08:26:23.870Z,14.10
2019-03-29T08:28:51.906Z,14.20
2019-03-29T08:31:20.029Z,14.40
2019-03-29T08:33:48.273Z,14.70
2019-03-29T08:36:16.307Z,14.80
2019-03-29T08:38:44.460Z,15.00
2019-03-29T08:41:12.491Z,15.20
2019-03-29T08:43:40.674Z,15.20
2019-03-29T08:46:08.660Z,15.10
2019-03-29T08:48:36.668Z,15.30
2019-03-29T08:51:04.695Z,15.30
2019-03-29T08:53:32.843Z,14.80
2019-03-29T08:56:03.203Z,14.70
2019-03-29T08:58:31.280Z,15.00
2019-03-29T09:00:59.393Z,15.10
2019-03-29T09:03:27.502Z,15.10
2019-03-29T09:05:55.651Z,15.00
2019-03-29T09:08:23.883Z,14.90
2019-03-29T09:10:52.046Z,14.90
2019-03-29T09:13:21.366Z,14.80
2019-03-29T09:15:51.291Z,14.90
2019-03-29T09:18:20.511Z,15.30
2019-03-29T09:20:48.539Z,15.50
2019-03-29T09:23:16.552Z,15.70
2019-03-29T09:25:44.785Z,16.00
2019-03-29T09:28:12.873Z,16.20
2019-03-29T09:30:40.952Z,16.10
2019-03-29T09:33:08.935Z,15.80
2019-03-29T09:35:38.148Z,15.60
2019-03-29T09:38:06.551Z,15.80
2019-03-29T09:40:34.636Z,15.70
2019-03-29T09:43:09.838Z,16.00
2019-03-29T09:45:32.737Z,15.80
2019-03-29T09:48:00.839Z,16.20
2019-03-29T09:50:28.946Z,16.40
2019-03-29T09:53:00.777Z,16.60
2019-03-29T09:55:27.012Z,16.30
2019-03-29T09:57:55.100Z,16.20
2019-03-29T10:00:23.783Z,16.20
2019-03-29T10:02:52.016Z,16.10
2019-03-29T10:05:20.580Z,15.90
2019-03-29T10:07:48.764Z,15.90
2019-03-29T10:10:16.960Z,16.00
2019-03-29T10:12:45.119Z,15.80
2019-03-29T10:15:13.216Z,16.00
2019-03-29T10:17:41.350Z,15.70
2019-03-29T10:20:09.338Z,15.70
2019-03-29T10:22:37.464Z,16.10
2019-03-29T10:25:18.475Z,16.20
2019-03-29T10:27:35.758Z,16.30
2019-03-29T10:30:04.799Z,16.50
2019-03-29T10:32:32.908Z,16.40
2019-03-29T10:35:01.098Z,16.50
2019-03-29T10:37:29.142Z,16.40
2019-03-29T10:39:57.276Z,16.70
2019-03-29T10:42:25.328Z,16.80
2019-03-29T10:44:53.464Z,16.70
2019-03-29T10:47:21.538Z,17.10
2019-03-29T10:49:49.634Z,17.30
2019-03-29T10:52:17.650Z,17.40
2019-03-29T10:54:45.777Z,17.50
2019-03-29T10:57:13.839Z,17.70
2019-03-29T10:59:41.908Z,18.00
2019-03-29T11:02:10.096Z,18.30
2019-03-29T11:04:38.246Z,18.40
2019-03-29T11:07:06.282Z,18.00
2019-03-29T11:09:36.853Z,17.90
2019-03-29T11:12:04.297Z,17.80
2019-03-29T11:14:32.325Z,18.20
2019-03-29T11:17:00.420Z,18.30
2019-03-29T11:19:28.452Z,18.30
2019-03-29T11:21:56.595Z,18.50
2019-03-29T11:24:24.606Z,18.80
2019-03-29T11:26:52.713Z,19.40
2019-03-29T11:29:20.823Z,19.70
2019-03-29T11:31:48.869Z,19.70
2019-03-29T11:34:16.871Z,20.20
2019-03-29T11:37:04.194Z,20.20
2019-03-29T11:39:32.385Z,19.60
2019-03-29T11:42:03.382Z,20.00
2019-03-29T11:44:30.527Z,20.20
2019-03-29T11:46:58.667Z,19.90
2019-03-29T11:49:26.868Z,20.20
2019-03-29T11:51:54.879Z,20.20
2019-03-29T11:54:23.189Z,20.40
2019-03-29T11:56:51.321Z,20.60
2019-03-29T11:59:19.465Z,20.60
2019-03-29T12:01:47.621Z,20.80
2019-03-29T12:04:15.858Z,20.80
2019-03-29T12:06:44.010Z,20.80
2019-03-29T12:09:12.118Z,20.20
2019-03-29T12:11:40.259Z,19.90
2019-03-29T12:14:08.313Z,20.00
2019-03-29T12:16:36.454Z,20.30
2019-03-29T12:19:04.631Z,20.40
2019-03-29T12:21:32.824Z,20.20
2019-03-29T12:24:00.984Z,20.20
2019-03-29T12:26:29.183Z,19.80
2019-03-29T12:28:57.371Z,19.90
2019-03-29T12:31:26.585Z,20.00
2019-03-29T12:33:54.901Z,20.10
2019-03-29T12:36:23.149Z,20.30
2019-03-29T12:38:51.404Z,20.10
2019-03-29T12:41:19.585Z,20.20
2019-03-29T12:43:55.596Z,19.80
2019-03-29T12:46:17.613Z,19.60
2019-03-29T12:48:45.797Z,19.90
2019-03-29T12:51:14.029Z,20.10
2019-03-29T12:53:42.263Z,20.30
2019-03-29T12:56:10.581Z,20.30
2019-03-29T12:58:38.741Z,20.20
2019-03-29T13:01:06.910Z,20.40
2019-03-29T13:03:35.907Z,20.20
2019-03-29T13:06:07.613Z,20.10
2019-03-29T13:08:35.753Z,20.30
2019-03-29T13:11:08.446Z,20.00
2019-03-29T13:13:37.688Z,19.60
2019-03-29T13:16:07.455Z,19.50
2019-03-29T13:18:38.410Z,19.50
2019-03-29T13:21:06.683Z,19.80
2019-03-29T13:23:34.885Z,20.10
2019-03-29T13:26:03.244Z,20.20
2019-03-29T13:28:32.278Z,20.30
2019-03-29T13:31:00.393Z,20.40
2019-03-29T13:33:29.865Z,20.50
2019-03-29T13:35:57.906Z,20.30
2019-03-29T13:38:26.098Z,20.00
2019-03-29T13:43:21.977Z,20.10
2019-03-29T13:45:50.084Z,20.30
2019-03-29T13:48:18.201Z,19.90
2019-03-29T13:50:46.353Z,19.90
2019-03-29T13:53:14.589Z,20.20
2019-03-29T13:55:42.694Z,20.20
2019-03-29T13:58:10.864Z,20.40
2019-03-29T14:00:39.016Z,20.50
2019-03-29T14:03:07.040Z,20.70
2019-03-29T14:05:35.146Z,20.80
2019-03-29T14:08:03.285Z,20.50
2019-03-29T14:10:32.680Z,20.70
2019-03-29T14:13:00.753Z,20.80
2019-03-29T14:15:29.879Z,20.70
2019-03-29T14:17:58.062Z,20.40
2019-03-29T14:20:33.586Z,20.50
2019-03-29T14:23:03.249Z,20.60
2019-03-29T14:25:31.446Z,20.40
2019-03-29T14:27:59.582Z,20.50
2019-03-29T14:30:27.827Z,20.70
2019-03-29T14:32:56.004Z,20.70
2019-03-29T14:35:24.116Z,20.70
2019-03-29T14:37:52.265Z,20.80
2019-03-29T14:40:32.610Z,20.90
2019-03-29T14:43:00.780Z,20.30
2019-03-29T14:45:28.778Z,20.20
2019-03-29T14:47:56.921Z,20.30
2019-03-29T14:50:25.066Z,20.50
2019-03-29T14:52:53.242Z,20.40
2019-03-29T14:55:21.473Z,20.20
2019-03-29T14:57:49.675Z,20.30
2019-03-29T15:00:34.214Z,20.20
2019-03-29T15:03:02.371Z,20.60
2019-03-29T15:05:30.510Z,20.30
2019-03-29T15:07:58.684Z,20.10
2019-03-29T15:10:27.108Z,20.20
2019-03-29T15:12:55.244Z,20.20
2019-03-29T15:15:35.216Z,20.20
2019-03-29T15:18:15.267Z,20.60
2019-03-29T15:20:53.144Z,20.60
2019-03-29T15:23:13.353Z,20.70
2019-03-29T15:25:41.460Z,20.40
2019-03-29T15:28:09.582Z,20.70
2019-03-29T15:30:37.711Z,20.80
2019-03-29T15:33:05.944Z,21.10
2019-03-29T15:35:34.111Z,20.90
2019-03-29T15:38:02.227Z,21.00
2019-03-29T15:40:30.218Z,21.00
2019-03-29T15:42:58.222Z,21.20
2019-03-29T15:45:38.471Z,21.40
2019-03-29T15:48:18.430Z,21.40
2019-03-29T15:50:46.650Z,21.60
2019-03-29T15:53:14.769Z,21.10
2019-03-29T15:55:43.005Z,20.90
2019-03-29T15:58:11.259Z,20.90
2019-03-29T16:00:39.600Z,21.10
2019-03-29T16:03:07.826Z,21.20
2019-03-29T16:05:35.977Z,21.70
2019-03-29T16:08:04.276Z,21.80
2019-03-29T16:10:32.493Z,22.20
2019-03-29T16:13:00.650Z,22.50
2019-03-29T16:15:36.338Z,22.20
2019-03-29T16:17:58.733Z,21.60
2019-03-29T16:20:27.901Z,21.60
2019-03-29T16:22:56.005Z,22.00
2019-03-29T16:25:24.147Z,22.10
2019-03-29T16:27:52.413Z,22.10
2019-03-29T16:30:21.168Z,22.20
2019-03-29T16:32:49.289Z,22.30
2019-03-29T16:35:17.499Z,22.30
2019-03-29T16:37:56.611Z,22.00
2019-03-29T16:40:15.472Z,22.10
2019-03-29T16:42:43.683Z,22.00
2019-03-29T16:45:12.160Z,21.90
2019-03-29T16:47:40.467Z,21.40
2019-03-29T16:50:08.754Z,21.60
2019-03-29T16:52:37.763Z,21.60
2019-03-29T16:55:13.168Z,21.70
2019-03-29T16:57:36.379Z,21.80
2019-03-29T17:00:06.900Z,21.80
2019-03-29T17:02:36.904Z,21.30
2019-03-29T17:05:05.208Z,21.40
2019-03-29T17:07:33.372Z,21.50
2019-03-29T17:10:01.387Z,21.50
2019-03-29T17:12:29.546Z,21.50
2019-03-29T17:14:57.600Z,21.40
2019-03-29T17:17:25.727Z,21.00
2019-03-29T17:19:53.915Z,20.90
2019-03-29T17:22:21.886Z,20.70
2019-03-29T17:24:56.729Z,20.70
2019-03-29T17:27:19.909Z,20.70
2019-03-29T17:29:48.111Z,20.80
2019-03-29T17:32:16.275Z,20.80
2019-03-29T17:34:44.448Z,20.70
2019-03-29T17:37:12.390Z,20.70
2019-03-29T17:39:40.403Z,20.60
2019-03-29T17:42:08.526Z,20.40
2019-03-29T17:44:36.507Z,20.40
2019-03-29T17:47:04.637Z,20.20
2019-03-29T17:49:32.616Z,20.10
2019-03-29T17:52:00.819Z,19.90
2019-03-29T17:54:28.952Z,20.00
2019-03-29T17:56:57.038Z,20.20
2019-03-29T17:59:25.447Z,20.30
2019-03-29T18:01:53.807Z,20.40
2019-03-29T18:04:22.038Z,20.40
2019-03-29T18:06:50.238Z,20.30
2019-03-29T18:09:18.447Z,20.10
2019-03-29T18:11:46.692Z,19.90
2019-03-29T18:14:15.041Z,19.90
2019-03-29T18:16:43.208Z,20.10
2019-03-29T18:19:11.854Z,20.00
2019-03-29T18:21:40.114Z,19.90
2019-03-29T18:24:08.509Z,19.80
2019-03-29T18:26:36.659Z,19.80
2019-03-29T18:29:04.845Z,19.70
2019-03-29T18:31:33.148Z,19.20
2019-03-29T18:34:01.737Z,19.10
2019-03-29T18:36:30.126Z,19.10
2019-03-29T18:38:58.330Z,18.90
2019-03-29T18:41:27.565Z,19.10
2019-03-29T18:44:00.198Z,19.10
2019-03-29T18:46:28.348Z,19.20
2019-03-29T18:48:56.385Z,19.40
2019-03-29T18:51:24.544Z,19.40
2019-03-29T18:53:52.716Z,19.30
2019-03-29T18:56:40.085Z,19.50
2019-03-29T18:59:10.017Z,19.40
2019-03-29T19:01:38.130Z,19.40
2019-03-29T19:04:06.322Z,19.30
2019-03-29T19:06:37.831Z,18.90
2019-03-29T19:09:08.936Z,18.40
2019-03-29T19:11:38.144Z,18.10
2019-03-29T19:14:06.712Z,18.10
2019-03-29T19:16:58.325Z,18.30
2019-03-29T19:19:18.274Z,18.40
2019-03-29T19:21:46.619Z,18.60
2019-03-29T19:24:14.761Z,18.70
2019-03-29T19:26:44.761Z,18.80
2019-03-29T19:29:12.974Z,18.70
2019-03-29T19:31:41.269Z,18.80
2019-03-29T19:34:09.695Z,18.70
2019-03-29T19:36:40.927Z,18.60
2019-03-29T19:39:09.189Z,18.60
2019-03-29T19:41:37.387Z,18.60
2019-03-29T19:44:05.607Z,18.50
2019-03-29T19:46:33.725Z,18.40
2019-03-29T19:49:02.845Z,18.40
2019-03-29T19:51:31.009Z,18.20
2019-03-29T19:54:07.112Z,18.10
2019-03-29T19:56:29.514Z,17.90
2019-03-29T19:58:57.819Z,17.80
2019-03-29T20:01:26.198Z,17.80
2019-03-29T20:03:55.536Z,17.90
2019-03-29T20:06:25.770Z,18.00
2019-03-29T20:08:53.777Z,18.20
2019-03-29T20:11:22.088Z,18.20
2019-03-29T20:13:50.288Z,18.30
2019-03-29T20:16:18.491Z,18.30
2019-03-29T20:18:46.836Z,18.30
2019-03-29T20:21:15.026Z,18.40
2019-03-29T20:23:43.229Z,18.30
2019-03-29T20:26:11.396Z,18.40
2019-03-29T20:28:39.577Z,18.20
2019-03-29T20:31:07.786Z,18.10
2019-03-29T20:33:37.690Z,18.10
2019-03-29T20:36:06.004Z,18.00
2019-03-29T20:38:34.434Z,17.90
2019-03-29T20:41:03.816Z,17.90
2019-03-29T20:43:31.969Z,17.80
2019-03-29T20:46:01.346Z,17.80
2019-03-29T20:48:29.486Z,17.80
2019-03-29T20:50:57.852Z,17.60
2019-03-29T20:53:26.030Z,17.60
2019-03-29T20:55:54.237Z,17.60
2019-03-29T20:58:22.643Z,17.40
2019-03-29T21:00:50.740Z,17.50
2019-03-29T21:03:18.898Z,17.50
2019-03-29T21:05:47.042Z,17.60
2019-03-29T21:08:16.550Z,17.60
2019-03-29T21:13:14.047Z,17.60
2019-03-29T21:15:42.230Z,17.60
2019-03-29T21:18:10.401Z,17.60
2019-03-29T21:20:38.443Z,17.60
2019-03-29T21:23:06.532Z,17.60
2019-03-29T21:25:34.763Z,17.50
2019-03-29T21:28:04.051Z,17.60
2019-03-29T21:30:32.189Z,17.60
2019-03-29T21:33:00.493Z,17.50
2019-03-29T21:35:28.623Z,17.50
2019-03-29T21:37:56.879Z,17.40
2019-03-29T21:40:25.027Z,17.40
2019-03-29T21:42:53.117Z,17.40
2019-03-29T21:45:28.605Z,17.30
2019-03-29T21:48:04.661Z,17.20
2019-03-29T21:50:21.299Z,17.10
2019-03-29T21:52:49.507Z,16.90
2019-03-29T21:55:19.499Z,16.70
2019-03-29T21:57:47.630Z,16.60
2019-03-29T22:00:18.847Z,16.60
2019-03-29T22:02:47.380Z,16.50
2019-03-29T22:05:16.876Z,16.50
2019-03-29T22:07:45.071Z,16.40
2019-03-29T22:10:13.209Z,16.50
2019-03-29T22:12:43.121Z,16.50
2019-03-29T22:15:11.533Z,16.50
2019-03-29T22:17:39.783Z,16.50
2019-03-29T22:20:09.273Z,16.40
2019-03-29T22:22:37.554Z,16.40
2019-03-29T22:25:06.207Z,16.40
2019-03-29T22:27:34.545Z,16.20
2019-03-29T22:30:02.710Z,16.10
2019-03-29T22:32:30.994Z,16.10
2019-03-29T22:34:59.184Z,16.10
2019-03-29T22:37:27.354Z,16.10
2019-03-29T22:39:55.533Z,16.10
2019-03-29T22:42:23.978Z,16.20
2019-03-29T22:44:52.180Z,16.30
2019-03-29T22:47:20.378Z,16.30
2019-03-29T22:49:48.472Z,16.30
2019-03-29T22:52:16.536Z,16.30
2019-03-29T22:54:44.704Z,16.30
2019-03-29T22:57:12.889Z,16.30
2019-03-29T22:59:40.939Z,16.10
2019-03-29T23:02:09.416Z,16.00
2019-03-29T23:04:37.639Z,16.00
2019-03-29T23:07:05.691Z,15.90
2019-03-29T23:09:33.870Z,15.90
2019-03-29T23:12:02.025Z,15.90
2019-03-29T23:14:30.248Z,15.90
2019-03-29T23:16:58.408Z,16.00
2019-03-29T23:19:26.469Z,16.00
2019-03-29T23:21:55.572Z,16.00
2019-03-29T23:24:23.674Z,16.00
2019-03-29T23:26:51.795Z,16.00
2019-03-29T23:29:19.828Z,16.10
2019-03-29T23:31:48.213Z,16.10
2019-03-29T23:34:16.418Z,16.10
2019-03-29T23:36:44.600Z,16.10
2019-03-29T23:39:12.716Z,16.00
2019-03-29T23:41:40.850Z,16.00
2019-03-29T23:44:09.044Z,16.00
2019-03-29T23:46:37.239Z,16.00
2019-03-29T23:49:05.380Z,15.90
2019-03-29T23:51:33.488Z,15.90
2019-03-29T23:54:01.599Z,15.70
2019-03-29T23:56:29.749Z,15.80
2019-03-29T23:58:57.907Z,15.70
